Oaksville, New York
Current Conditions -  °F | °C
As of 2:55 PM on Tuesday 21 Oct 2014 (Local Time) from KNY0 Reporting Station
Overcast Overcast  
Wind Chill: 47°   Ceiling: 800
Heat Index: 49°   Visibility: 10mi
Dew Point: 47°   Wind: 6mph
Humidity: 90%   Direction: 60°ENE
Pressure: 29.9"   Gusts: NA
Location:  42.7373°N, 74.9926°W
Report Text: KNY0 211855Z AUTO 06005KT 10SM OVC008 10/08 A2990 RMK AO2 T00970081
Loading
Personal Weather Stations






























Interactive Weather Map
Tropical Storm Tracking
New forecast layout! Learn more

10-Day Weather Forecast

Advertisements
Track Severe Weather on mobile